sensor_id;sensor_type;location;lat;lon;timestamp;P1;durP1;ratioP1;P2;durP2;ratioP2
8187;SDS011;4135;49.184;9.722;2022-09-25T00:00:05;2.67;;;1.90;;
8187;SDS011;4135;49.184;9.722;2022-09-25T00:02:35;3.38;;;1.92;;
8187;SDS011;4135;49.184;9.722;2022-09-25T00:05:05;3.58;;;2.03;;
8187;SDS011;4135;49.184;9.722;2022-09-25T00:07:35;2.50;;;2.08;;
8187;SDS011;4135;49.184;9.722;2022-09-25T00:10:04;2.47;;;2.05;;
8187;SDS011;4135;49.184;9.722;2022-09-25T00:12:34;2.88;;;2.13;;
8187;SDS011;4135;49.184;9.722;2022-09-25T00:15:04;5.25;;;2.03;;
8187;SDS011;4135;49.184;9.722;2022-09-25T00:17:34;3.63;;;2.28;;
8187;SDS011;4135;49.184;9.722;2022-09-25T00:20:04;2.30;;;1.73;;
8187;SDS011;4135;49.184;9.722;2022-09-25T00:22:33;2.45;;;2.00;;
8187;SDS011;4135;49.184;9.722;2022-09-25T00:25:03;2.28;;;2.00;;
8187;SDS011;4135;49.184;9.722;2022-09-25T00:27:33;2.58;;;2.13;;
8187;SDS011;4135;49.184;9.722;2022-09-25T00:30:03;2.15;;;1.80;;
8187;SDS011;4135;49.184;9.722;2022-09-25T00:32:33;2.33;;;2.08;;
8187;SDS011;4135;49.184;9.722;2022-09-25T00:35:03;3.38;;;2.03;;
8187;SDS011;4135;49.184;9.722;2022-09-25T00:37:34;2.88;;;2.08;;
8187;SDS011;4135;49.184;9.722;2022-09-25T00:40:04;2.65;;;2.13;;
8187;SDS011;4135;49.184;9.722;2022-09-25T00:42:35;2.80;;;2.58;;
8187;SDS011;4135;49.184;9.722;2022-09-25T00:45:14;2.75;;;2.20;;
8187;SDS011;4135;49.184;9.722;2022-09-25T00:48:05;2.88;;;2.35;;
8187;SDS011;4135;49.184;9.722;2022-09-25T00:50:38;3.25;;;2.35;;
8187;SDS011;4135;49.184;9.722;2022-09-25T00:53:19;2.45;;;2.28;;
8187;SDS011;4135;49.184;9.722;2022-09-25T00:55:52;2.65;;;2.28;;
8187;SDS011;4135;49.184;9.722;2022-09-25T00:58:24;3.40;;;2.75;;
8187;SDS011;4135;49.184;9.722;2022-09-25T01:00:57;3.50;;;2.17;;
8187;SDS011;4135;49.184;9.722;2022-09-25T01:03:27;2.25;;;2.05;;
8187;SDS011;4135;49.184;9.722;2022-09-25T01:05:57;3.92;;;2.13;;
8187;SDS011;4135;49.184;9.722;2022-09-25T01:08:28;2.72;;;1.92;;
8187;SDS011;4135;49.184;9.722;2022-09-25T01:11:00;3.70;;;2.10;;
8187;SDS011;4135;49.184;9.722;2022-09-25T01:13:29;3.25;;;2.10;;
8187;SDS011;4135;49.184;9.722;2022-09-25T01:16:11;2.63;;;2.17;;
8187;SDS011;4135;49.184;9.722;2022-09-25T01:21:28;2.30;;;1.90;;
8187;SDS011;4135;49.184;9.722;2022-09-25T01:24:26;2.88;;;2.22;;
8187;SDS011;4135;49.184;9.722;2022-09-25T01:30:08;4.28;;;2.40;;
8187;SDS011;4135;49.184;9.722;2022-09-25T01:33:02;2.97;;;2.30;;
8187;SDS011;4135;49.184;9.722;2022-09-25T01:35:49;3.33;;;2.55;;
8187;SDS011;4135;49.184;9.722;2022-09-25T01:38:44;2.70;;;2.00;;
8187;SDS011;4135;49.184;9.722;2022-09-25T01:41:21;4.90;;;2.85;;
8187;SDS011;4135;49.184;9.722;2022-09-25T01:44:41;2.60;;;2.35;;
8187;SDS011;4135;49.184;9.722;2022-09-25T01:46:54;3.03;;;2.40;;
8187;SDS011;4135;49.184;9.722;2022-09-25T01:52:31;3.33;;;2.63;;
8187;SDS011;4135;49.184;9.722;2022-09-25T01:55:09;3.05;;;2.08;;
8187;SDS011;4135;49.184;9.722;2022-09-25T01:57:45;2.45;;;2.05;;
8187;SDS011;4135;49.184;9.722;2022-09-25T02:00:24;1.95;;;1.88;;
8187;SDS011;4135;49.184;9.722;2022-09-25T02:02:54;2.45;;;1.70;;
8187;SDS011;4135;49.184;9.722;2022-09-25T02:08:21;2.08;;;1.98;;
8187;SDS011;4135;49.184;9.722;2022-09-25T02:10:58;3.25;;;2.00;;
8187;SDS011;4135;49.184;9.722;2022-09-25T02:13:33;4.28;;;2.15;;
8187;SDS011;4135;49.184;9.722;2022-09-25T02:16:10;2.30;;;1.90;;
8187;SDS011;4135;49.184;9.722;2022-09-25T02:18:44;3.72;;;2.55;;
8187;SDS011;4135;49.184;9.722;2022-09-25T02:21:44;2.80;;;2.20;;
8187;SDS011;4135;49.184;9.722;2022-09-25T02:24:33;3.78;;;2.40;;
8187;SDS011;4135;49.184;9.722;2022-09-25T02:27:25;2.85;;;1.92;;
8187;SDS011;4135;49.184;9.722;2022-09-25T02:29:56;3.50;;;2.05;;
8187;SDS011;4135;49.184;9.722;2022-09-25T02:32:29;2.15;;;2.00;;
8187;SDS011;4135;49.184;9.722;2022-09-25T02:35:00;2.80;;;1.95;;
8187;SDS011;4135;49.184;9.722;2022-09-25T02:37:30;2.55;;;1.70;;
8187;SDS011;4135;49.184;9.722;2022-09-25T02:39:59;2.60;;;1.90;;
8187;SDS011;4135;49.184;9.722;2022-09-25T02:42:37;3.13;;;2.30;;
8187;SDS011;4135;49.184;9.722;2022-09-25T02:51:17;2.45;;;2.17;;
8187;SDS011;4135;49.184;9.722;2022-09-25T02:56:46;2.20;;;2.00;;
8187;SDS011;4135;49.184;9.722;2022-09-25T02:59:32;2.20;;;2.00;;
8187;SDS011;4135;49.184;9.722;2022-09-25T03:02:05;2.08;;;1.90;;
8187;SDS011;4135;49.184;9.722;2022-09-25T03:04:37;3.40;;;1.98;;
8187;SDS011;4135;49.184;9.722;2022-09-25T03:07:09;1.95;;;1.88;;
8187;SDS011;4135;49.184;9.722;2022-09-25T03:09:39;1.90;;;1.60;;
8187;SDS011;4135;49.184;9.722;2022-09-25T03:12:14;2.92;;;2.22;;
8187;SDS011;4135;49.184;9.722;2022-09-25T03:14:43;2.25;;;1.80;;
8187;SDS011;4135;49.184;9.722;2022-09-25T03:17:13;2.05;;;1.80;;
8187;SDS011;4135;49.184;9.722;2022-09-25T03:19:45;2.63;;;1.67;;
8187;SDS011;4135;49.184;9.722;2022-09-25T03:22:15;1.95;;;1.70;;
8187;SDS011;4135;49.184;9.722;2022-09-25T03:24:44;2.28;;;1.55;;
8187;SDS011;4135;49.184;9.722;2022-09-25T03:27:14;3.10;;;1.90;;
8187;SDS011;4135;49.184;9.722;2022-09-25T03:29:43;2.90;;;2.38;;
8187;SDS011;4135;49.184;9.722;2022-09-25T03:32:13;3.30;;;2.15;;
8187;SDS011;4135;49.184;9.722;2022-09-25T03:34:42;2.33;;;2.10;;
8187;SDS011;4135;49.184;9.722;2022-09-25T03:37:12;1.90;;;1.85;;
8187;SDS011;4135;49.184;9.722;2022-09-25T03:39:42;2.30;;;1.77;;
8187;SDS011;4135;49.184;9.722;2022-09-25T03:42:11;2.38;;;2.13;;
8187;SDS011;4135;49.184;9.722;2022-09-25T03:44:41;2.83;;;2.17;;
8187;SDS011;4135;49.184;9.722;2022-09-25T03:47:12;2.30;;;1.90;;
8187;SDS011;4135;49.184;9.722;2022-09-25T03:49:42;2.97;;;2.20;;
8187;SDS011;4135;49.184;9.722;2022-09-25T03:52:11;1.52;;;1.42;;
8187;SDS011;4135;49.184;9.722;2022-09-25T03:54:42;2.33;;;2.03;;
8187;SDS011;4135;49.184;9.722;2022-09-25T03:57:11;2.15;;;1.98;;
8187;SDS011;4135;49.184;9.722;2022-09-25T03:59:42;1.92;;;1.80;;
8187;SDS011;4135;49.184;9.722;2022-09-25T04:02:12;2.33;;;1.85;;
8187;SDS011;4135;49.184;9.722;2022-09-25T04:04:41;2.03;;;1.90;;
8187;SDS011;4135;49.184;9.722;2022-09-25T04:07:13;1.85;;;1.83;;
8187;SDS011;4135;49.184;9.722;2022-09-25T04:09:42;2.00;;;1.90;;
8187;SDS011;4135;49.184;9.722;2022-09-25T04:12:12;2.25;;;2.10;;
8187;SDS011;4135;49.184;9.722;2022-09-25T04:14:42;2.60;;;1.67;;
8187;SDS011;4135;49.184;9.722;2022-09-25T04:17:13;2.83;;;2.28;;
8187;SDS011;4135;49.184;9.722;2022-09-25T04:19:42;2.58;;;2.20;;
8187;SDS011;4135;49.184;9.722;2022-09-25T04:22:12;2.20;;;1.75;;
8187;SDS011;4135;49.184;9.722;2022-09-25T04:24:41;1.90;;;1.67;;
8187;SDS011;4135;49.184;9.722;2022-09-25T04:27:17;3.08;;;1.95;;
8187;SDS011;4135;49.184;9.722;2022-09-25T04:29:50;2.05;;;1.92;;
8187;SDS011;4135;49.184;9.722;2022-09-25T04:32:19;3.75;;;1.50;;
8187;SDS011;4135;49.184;9.722;2022-09-25T04:35:07;2.85;;;2.10;;
8187;SDS011;4135;49.184;9.722;2022-09-25T04:37:37;3.08;;;1.88;;
8187;SDS011;4135;49.184;9.722;2022-09-25T04:40:06;2.15;;;2.00;;
8187;SDS011;4135;49.184;9.722;2022-09-25T04:42:36;1.98;;;1.77;;
8187;SDS011;4135;49.184;9.722;2022-09-25T04:45:07;2.78;;;2.15;;
8187;SDS011;4135;49.184;9.722;2022-09-25T04:47:37;2.63;;;2.10;;
8187;SDS011;4135;49.184;9.722;2022-09-25T04:50:06;3.35;;;2.15;;
8187;SDS011;4135;49.184;9.722;2022-09-25T04:52:36;2.28;;;2.10;;
8187;SDS011;4135;49.184;9.722;2022-09-25T04:55:06;2.15;;;1.98;;
8187;SDS011;4135;49.184;9.722;2022-09-25T04:57:36;1.90;;;1.80;;
8187;SDS011;4135;49.184;9.722;2022-09-25T05:00:07;2.05;;;1.90;;
8187;SDS011;4135;49.184;9.722;2022-09-25T05:02:37;4.15;;;2.20;;
8187;SDS011;4135;49.184;9.722;2022-09-25T05:05:07;2.67;;;2.00;;
8187;SDS011;4135;49.184;9.722;2022-09-25T05:07:37;2.15;;;1.98;;
8187;SDS011;4135;49.184;9.722;2022-09-25T05:10:07;2.20;;;2.00;;
8187;SDS011;4135;49.184;9.722;2022-09-25T05:12:37;2.00;;;1.88;;
8187;SDS011;4135;49.184;9.722;2022-09-25T05:15:06;3.80;;;2.35;;
8187;SDS011;4135;49.184;9.722;2022-09-25T05:17:37;2.05;;;1.88;;
8187;SDS011;4135;49.184;9.722;2022-09-25T05:20:06;2.17;;;1.80;;
8187;SDS011;4135;49.184;9.722;2022-09-25T05:22:37;2.95;;;2.38;;
8187;SDS011;4135;49.184;9.722;2022-09-25T05:25:06;2.50;;;2.25;;
8187;SDS011;4135;49.184;9.722;2022-09-25T05:27:37;2.33;;;1.77;;
8187;SDS011;4135;49.184;9.722;2022-09-25T05:30:07;1.83;;;1.73;;
8187;SDS011;4135;49.184;9.722;2022-09-25T05:32:39;3.05;;;1.95;;
8187;SDS011;4135;49.184;9.722;2022-09-25T05:35:16;2.47;;;1.75;;
8187;SDS011;4135;49.184;9.722;2022-09-25T05:37:50;2.20;;;1.98;;
8187;SDS011;4135;49.184;9.722;2022-09-25T05:40:20;3.03;;;2.13;;
8187;SDS011;4135;49.184;9.722;2022-09-25T05:42:51;1.80;;;1.70;;
8187;SDS011;4135;49.184;9.722;2022-09-25T05:45:21;2.58;;;1.80;;
8187;SDS011;4135;49.184;9.722;2022-09-25T05:47:58;1.77;;;1.52;;
8187;SDS011;4135;49.184;9.722;2022-09-25T05:50:32;6.57;;;1.85;;
8187;SDS011;4135;49.184;9.722;2022-09-25T05:53:03;2.15;;;1.42;;
8187;SDS011;4135;49.184;9.722;2022-09-25T05:55:33;2.53;;;2.08;;
8187;SDS011;4135;49.184;9.722;2022-09-25T05:58:03;3.13;;;1.83;;
8187;SDS011;4135;49.184;9.722;2022-09-25T06:00:32;1.92;;;1.85;;
8187;SDS011;4135;49.184;9.722;2022-09-25T06:03:02;2.22;;;1.90;;
8187;SDS011;4135;49.184;9.722;2022-09-25T06:05:31;1.73;;;1.35;;
8187;SDS011;4135;49.184;9.722;2022-09-25T06:08:01;2.75;;;1.50;;
8187;SDS011;4135;49.184;9.722;2022-09-25T06:10:31;3.72;;;1.98;;
8187;SDS011;4135;49.184;9.722;2022-09-25T06:13:02;4.22;;;1.52;;
8187;SDS011;4135;49.184;9.722;2022-09-25T06:15:36;2.03;;;1.50;;
8187;SDS011;4135;49.184;9.722;2022-09-25T06:18:07;2.38;;;1.75;;
8187;SDS011;4135;49.184;9.722;2022-09-25T06:20:37;1.60;;;1.50;;
8187;SDS011;4135;49.184;9.722;2022-09-25T06:23:06;2.03;;;1.80;;
8187;SDS011;4135;49.184;9.722;2022-09-25T06:25:36;4.70;;;1.42;;
8187;SDS011;4135;49.184;9.722;2022-09-25T06:28:05;2.20;;;1.55;;
8187;SDS011;4135;49.184;9.722;2022-09-25T06:30:35;1.70;;;1.60;;
8187;SDS011;4135;49.184;9.722;2022-09-25T06:33:08;1.23;;;1.05;;
8187;SDS011;4135;49.184;9.722;2022-09-25T06:35:41;2.88;;;1.25;;
8187;SDS011;4135;49.184;9.722;2022-09-25T06:38:13;1.40;;;1.30;;
8187;SDS011;4135;49.184;9.722;2022-09-25T06:40:43;1.95;;;1.40;;
8187;SDS011;4135;49.184;9.722;2022-09-25T06:43:13;1.80;;;1.40;;
8187;SDS011;4135;49.184;9.722;2022-09-25T06:45:44;1.95;;;1.65;;
8187;SDS011;4135;49.184;9.722;2022-09-25T06:48:16;1.77;;;1.42;;
8187;SDS011;4135;49.184;9.722;2022-09-25T06:50:47;1.35;;;1.27;;
8187;SDS011;4135;49.184;9.722;2022-09-25T06:53:19;1.27;;;1.15;;
8187;SDS011;4135;49.184;9.722;2022-09-25T06:55:50;2.47;;;1.50;;
8187;SDS011;4135;49.184;9.722;2022-09-25T06:58:21;1.35;;;1.33;;
8187;SDS011;4135;49.184;9.722;2022-09-25T07:00:53;2.25;;;1.70;;
8187;SDS011;4135;49.184;9.722;2022-09-25T07:03:23;1.88;;;1.48;;
8187;SDS011;4135;49.184;9.722;2022-09-25T07:08:51;1.52;;;1.30;;
8187;SDS011;4135;49.184;9.722;2022-09-25T07:11:22;2.72;;;1.42;;
8187;SDS011;4135;49.184;9.722;2022-09-25T07:13:53;0.98;;;0.90;;
8187;SDS011;4135;49.184;9.722;2022-09-25T07:16:24;2.45;;;1.50;;
8187;SDS011;4135;49.184;9.722;2022-09-25T07:18:55;1.85;;;1.05;;
8187;SDS011;4135;49.184;9.722;2022-09-25T07:21:28;1.65;;;1.13;;
8187;SDS011;4135;49.184;9.722;2022-09-25T07:24:00;1.52;;;1.05;;
8187;SDS011;4135;49.184;9.722;2022-09-25T07:26:29;1.40;;;1.27;;
8187;SDS011;4135;49.184;9.722;2022-09-25T07:29:02;2.47;;;1.20;;
8187;SDS011;4135;49.184;9.722;2022-09-25T07:31:34;1.48;;;1.38;;
8187;SDS011;4135;49.184;9.722;2022-09-25T07:34:05;1.40;;;1.30;;
8187;SDS011;4135;49.184;9.722;2022-09-25T07:36:38;1.98;;;1.40;;
8187;SDS011;4135;49.184;9.722;2022-09-25T07:39:10;2.35;;;1.48;;
8187;SDS011;4135;49.184;9.722;2022-09-25T07:41:40;2.17;;;1.10;;
8187;SDS011;4135;49.184;9.722;2022-09-25T07:44:09;1.60;;;1.30;;
8187;SDS011;4135;49.184;9.722;2022-09-25T07:46:39;1.40;;;1.38;;
8187;SDS011;4135;49.184;9.722;2022-09-25T07:49:12;1.42;;;1.10;;
8187;SDS011;4135;49.184;9.722;2022-09-25T07:51:41;3.38;;;1.58;;
8187;SDS011;4135;49.184;9.722;2022-09-25T07:54:11;1.73;;;1.45;;
8187;SDS011;4135;49.184;9.722;2022-09-25T07:56:41;1.70;;;0.95;;
8187;SDS011;4135;49.184;9.722;2022-09-25T07:59:10;1.75;;;1.50;;
8187;SDS011;4135;49.184;9.722;2022-09-25T08:01:40;3.05;;;0.98;;
8187;SDS011;4135;49.184;9.722;2022-09-25T08:04:09;2.15;;;1.60;;
8187;SDS011;4135;49.184;9.722;2022-09-25T08:06:39;2.17;;;1.63;;
8187;SDS011;4135;49.184;9.722;2022-09-25T08:09:09;6.88;;;1.50;;
8187;SDS011;4135;49.184;9.722;2022-09-25T08:11:40;0.88;;;0.77;;
8187;SDS011;4135;49.184;9.722;2022-09-25T08:14:10;1.40;;;1.00;;
8187;SDS011;4135;49.184;9.722;2022-09-25T08:16:42;2.05;;;1.55;;
8187;SDS011;4135;49.184;9.722;2022-09-25T08:19:12;1.50;;;1.20;;
8187;SDS011;4135;49.184;9.722;2022-09-25T08:21:45;1.77;;;1.10;;
8187;SDS011;4135;49.184;9.722;2022-09-25T08:24:15;2.47;;;1.00;;
8187;SDS011;4135;49.184;9.722;2022-09-25T08:26:45;2.00;;;1.30;;
8187;SDS011;4135;49.184;9.722;2022-09-25T08:29:14;2.15;;;1.10;;
8187;SDS011;4135;49.184;9.722;2022-09-25T08:31:44;2.97;;;2.25;;
8187;SDS011;4135;49.184;9.722;2022-09-25T08:34:13;3.80;;;1.55;;
8187;SDS011;4135;49.184;9.722;2022-09-25T08:36:46;1.90;;;1.60;;
8187;SDS011;4135;49.184;9.722;2022-09-25T08:39:17;4.38;;;1.85;;
8187;SDS011;4135;49.184;9.722;2022-09-25T08:41:48;2.75;;;2.58;;
8187;SDS011;4135;49.184;9.722;2022-09-25T08:47:10;2.83;;;1.98;;
8187;SDS011;4135;49.184;9.722;2022-09-25T08:50:21;2.25;;;1.67;;
8187;SDS011;4135;49.184;9.722;2022-09-25T08:52:56;3.25;;;1.95;;
8187;SDS011;4135;49.184;9.722;2022-09-25T08:55:34;2.30;;;1.63;;
8187;SDS011;4135;49.184;9.722;2022-09-25T08:58:30;1.92;;;1.30;;
8187;SDS011;4135;49.184;9.722;2022-09-25T09:01:10;1.75;;;1.58;;
8187;SDS011;4135;49.184;9.722;2022-09-25T09:06:35;1.98;;;1.52;;
8187;SDS011;4135;49.184;9.722;2022-09-25T09:11:44;2.35;;;1.60;;
8187;SDS011;4135;49.184;9.722;2022-09-25T09:14:29;2.95;;;1.60;;
8187;SDS011;4135;49.184;9.722;2022-09-25T09:17:06;1.50;;;1.30;;
8187;SDS011;4135;49.184;9.722;2022-09-25T09:19:47;1.65;;;1.48;;
8187;SDS011;4135;49.184;9.722;2022-09-25T09:22:28;2.78;;;1.80;;
8187;SDS011;4135;49.184;9.722;2022-09-25T09:25:25;3.00;;;1.55;;
8187;SDS011;4135;49.184;9.722;2022-09-25T09:36:45;3.95;;;2.15;;
8187;SDS011;4135;49.184;9.722;2022-09-25T09:39:26;1.58;;;1.48;;
8187;SDS011;4135;49.184;9.722;2022-09-25T09:42:35;2.30;;;1.90;;
8187;SDS011;4135;49.184;9.722;2022-09-25T09:45:28;2.63;;;1.75;;
8187;SDS011;4135;49.184;9.722;2022-09-25T09:51:11;2.38;;;1.83;;
8187;SDS011;4135;49.184;9.722;2022-09-25T09:54:03;2.10;;;1.50;;
8187;SDS011;4135;49.184;9.722;2022-09-25T09:56:41;2.15;;;1.30;;
8187;SDS011;4135;49.184;9.722;2022-09-25T09:59:15;1.75;;;1.42;;
8187;SDS011;4135;49.184;9.722;2022-09-25T10:02:02;2.20;;;1.50;;
8187;SDS011;4135;49.184;9.722;2022-09-25T10:04:41;1.35;;;1.30;;
8187;SDS011;4135;49.184;9.722;2022-09-25T10:07:13;5.72;;;1.17;;
8187;SDS011;4135;49.184;9.722;2022-09-25T10:09:46;3.33;;;1.60;;
8187;SDS011;4135;49.184;9.722;2022-09-25T10:15:01;3.15;;;1.50;;
8187;SDS011;4135;49.184;9.722;2022-09-25T10:17:33;3.28;;;1.85;;
8187;SDS011;4135;49.184;9.722;2022-09-25T10:20:18;5.30;;;2.50;;
8187;SDS011;4135;49.184;9.722;2022-09-25T10:22:51;2.63;;;2.13;;
8187;SDS011;4135;49.184;9.722;2022-09-25T10:25:34;3.97;;;2.13;;
8187;SDS011;4135;49.184;9.722;2022-09-25T10:28:24;2.20;;;1.83;;
8187;SDS011;4135;49.184;9.722;2022-09-25T10:30:59;2.25;;;1.52;;
8187;SDS011;4135;49.184;9.722;2022-09-25T10:33:30;2.58;;;1.77;;
8187;SDS011;4135;49.184;9.722;2022-09-25T10:36:00;2.67;;;1.65;;
8187;SDS011;4135;49.184;9.722;2022-09-25T10:38:43;3.55;;;2.42;;
8187;SDS011;4135;49.184;9.722;2022-09-25T10:41:17;2.35;;;1.70;;
8187;SDS011;4135;49.184;9.722;2022-09-25T10:43:49;2.30;;;1.50;;
8187;SDS011;4135;49.184;9.722;2022-09-25T10:46:25;4.07;;;2.35;;
8187;SDS011;4135;49.184;9.722;2022-09-25T10:49:22;5.93;;;2.78;;
8187;SDS011;4135;49.184;9.722;2022-09-25T10:52:15;3.53;;;2.60;;
8187;SDS011;4135;49.184;9.722;2022-09-25T10:54:50;4.75;;;2.90;;
8187;SDS011;4135;49.184;9.722;2022-09-25T10:57:42;4.63;;;2.10;;
8187;SDS011;4135;49.184;9.722;2022-09-25T11:00:24;3.42;;;1.75;;
8187;SDS011;4135;49.184;9.722;2022-09-25T11:02:56;3.03;;;2.03;;
8187;SDS011;4135;49.184;9.722;2022-09-25T11:05:29;4.03;;;2.28;;
8187;SDS011;4135;49.184;9.722;2022-09-25T11:08:04;7.60;;;2.63;;
8187;SDS011;4135;49.184;9.722;2022-09-25T11:10:36;5.22;;;2.75;;
8187;SDS011;4135;49.184;9.722;2022-09-25T11:13:21;6.32;;;2.90;;
8187;SDS011;4135;49.184;9.722;2022-09-25T11:16:00;12.32;;;5.25;;
8187;SDS011;4135;49.184;9.722;2022-09-25T11:21:29;10.32;;;5.05;;
8187;SDS011;4135;49.184;9.722;2022-09-25T11:24:14;7.00;;;4.40;;
8187;SDS011;4135;49.184;9.722;2022-09-25T11:27:03;5.28;;;3.33;;
8187;SDS011;4135;49.184;9.722;2022-09-25T11:29:53;7.55;;;3.13;;
8187;SDS011;4135;49.184;9.722;2022-09-25T11:41:45;3.83;;;2.40;;
8187;SDS011;4135;49.184;9.722;2022-09-25T11:49:47;6.72;;;2.95;;
8187;SDS011;4135;49.184;9.722;2022-09-25T11:58:18;4.90;;;2.28;;
8187;SDS011;4135;49.184;9.722;2022-09-25T12:03:54;4.03;;;2.78;;
8187;SDS011;4135;49.184;9.722;2022-09-25T12:12:28;4.93;;;2.92;;
8187;SDS011;4135;49.184;9.722;2022-09-25T12:28:26;8.85;;;3.45;;
8187;SDS011;4135;49.184;9.722;2022-09-25T12:37:25;4.65;;;2.03;;
8187;SDS011;4135;49.184;9.722;2022-09-25T12:40:04;5.45;;;2.80;;
8187;SDS011;4135;49.184;9.722;2022-09-25T12:42:53;5.35;;;2.55;;
8187;SDS011;4135;49.184;9.722;2022-09-25T12:45:37;6.80;;;2.95;;
8187;SDS011;4135;49.184;9.722;2022-09-25T12:48:13;6.90;;;2.45;;
8187;SDS011;4135;49.184;9.722;2022-09-25T12:53:43;2.80;;;1.83;;
8187;SDS011;4135;49.184;9.722;2022-09-25T12:56:30;3.78;;;2.42;;
8187;SDS011;4135;49.184;9.722;2022-09-25T12:59:22;6.53;;;2.55;;
8187;SDS011;4135;49.184;9.722;2022-09-25T13:09:52;4.50;;;2.78;;
8187;SDS011;4135;49.184;9.722;2022-09-25T13:12:32;7.65;;;3.13;;
8187;SDS011;4135;49.184;9.722;2022-09-25T13:15:09;4.35;;;2.45;;
8187;SDS011;4135;49.184;9.722;2022-09-25T13:17:40;4.75;;;2.10;;
8187;SDS011;4135;49.184;9.722;2022-09-25T13:22:58;4.85;;;2.00;;
8187;SDS011;4135;49.184;9.722;2022-09-25T13:25:38;5.95;;;2.92;;
8187;SDS011;4135;49.184;9.722;2022-09-25T13:28:18;3.72;;;2.33;;
8187;SDS011;4135;49.184;9.722;2022-09-25T13:31:07;4.60;;;2.55;;
8187;SDS011;4135;49.184;9.722;2022-09-25T13:33:42;6.53;;;2.63;;
8187;SDS011;4135;49.184;9.722;2022-09-25T13:39:03;4.43;;;2.38;;
8187;SDS011;4135;49.184;9.722;2022-09-25T13:42:02;4.50;;;2.22;;
8187;SDS011;4135;49.184;9.722;2022-09-25T13:44:36;6.03;;;3.15;;
8187;SDS011;4135;49.184;9.722;2022-09-25T14:03:25;4.15;;;2.17;;
8187;SDS011;4135;49.184;9.722;2022-09-25T14:05:58;1.92;;;1.38;;
8187;SDS011;4135;49.184;9.722;2022-09-25T14:08:30;2.90;;;1.65;;
8187;SDS011;4135;49.184;9.722;2022-09-25T14:11:02;2.78;;;1.40;;
8187;SDS011;4135;49.184;9.722;2022-09-25T14:13:35;2.55;;;1.70;;
8187;SDS011;4135;49.184;9.722;2022-09-25T14:16:08;2.60;;;1.35;;
8187;SDS011;4135;49.184;9.722;2022-09-25T14:18:46;3.35;;;1.52;;
8187;SDS011;4135;49.184;9.722;2022-09-25T14:21:16;3.58;;;1.58;;
8187;SDS011;4135;49.184;9.722;2022-09-25T14:23:52;3.97;;;1.50;;
8187;SDS011;4135;49.184;9.722;2022-09-25T14:26:23;5.15;;;2.10;;
8187;SDS011;4135;49.184;9.722;2022-09-25T14:28:56;4.00;;;2.13;;
8187;SDS011;4135;49.184;9.722;2022-09-25T14:34:05;2.47;;;1.55;;
8187;SDS011;4135;49.184;9.722;2022-09-25T14:42:15;2.05;;;1.45;;
8187;SDS011;4135;49.184;9.722;2022-09-25T14:47:35;2.58;;;1.52;;
8187;SDS011;4135;49.184;9.722;2022-09-25T14:50:09;1.95;;;1.27;;
8187;SDS011;4135;49.184;9.722;2022-09-25T14:52:53;1.20;;;1.10;;
8187;SDS011;4135;49.184;9.722;2022-09-25T14:55:27;1.15;;;1.00;;
8187;SDS011;4135;49.184;9.722;2022-09-25T14:58:06;3.20;;;1.35;;
8187;SDS011;4135;49.184;9.722;2022-09-25T15:00:45;1.23;;;1.13;;
8187;SDS011;4135;49.184;9.722;2022-09-25T15:03:19;2.00;;;0.90;;
8187;SDS011;4135;49.184;9.722;2022-09-25T15:05:54;2.47;;;1.25;;
8187;SDS011;4135;49.184;9.722;2022-09-25T15:13:41;1.85;;;1.30;;
8187;SDS011;4135;49.184;9.722;2022-09-25T15:16:21;2.55;;;1.17;;
8187;SDS011;4135;49.184;9.722;2022-09-25T15:19:16;1.58;;;1.00;;
8187;SDS011;4135;49.184;9.722;2022-09-25T15:21:50;1.52;;;0.93;;
8187;SDS011;4135;49.184;9.722;2022-09-25T15:24:21;3.83;;;1.10;;
8187;SDS011;4135;49.184;9.722;2022-09-25T15:27:02;1.65;;;1.08;;
8187;SDS011;4135;49.184;9.722;2022-09-25T15:29:35;2.33;;;1.10;;
8187;SDS011;4135;49.184;9.722;2022-09-25T15:32:16;2.45;;;1.00;;
8187;SDS011;4135;49.184;9.722;2022-09-25T15:34:48;3.20;;;1.30;;
8187;SDS011;4135;49.184;9.722;2022-09-25T15:39:55;1.85;;;1.00;;
8187;SDS011;4135;49.184;9.722;2022-09-25T15:42:36;2.58;;;1.40;;
8187;SDS011;4135;49.184;9.722;2022-09-25T15:48:07;3.70;;;1.30;;
8187;SDS011;4135;49.184;9.722;2022-09-25T15:51:16;2.13;;;1.33;;
8187;SDS011;4135;49.184;9.722;2022-09-25T15:53:48;1.50;;;1.13;;
8187;SDS011;4135;49.184;9.722;2022-09-25T15:56:37;1.65;;;1.00;;
8187;SDS011;4135;49.184;9.722;2022-09-25T15:59:19;2.58;;;1.02;;
8187;SDS011;4135;49.184;9.722;2022-09-25T16:01:53;1.00;;;0.70;;
8187;SDS011;4135;49.184;9.722;2022-09-25T16:04:45;0.77;;;0.52;;
8187;SDS011;4135;49.184;9.722;2022-09-25T16:07:28;1.00;;;0.82;;
8187;SDS011;4135;49.184;9.722;2022-09-25T16:17:56;1.00;;;0.50;;
8187;SDS011;4135;49.184;9.722;2022-09-25T16:20:31;1.40;;;0.95;;
8187;SDS011;4135;49.184;9.722;2022-09-25T16:23:04;2.13;;;0.80;;
8187;SDS011;4135;49.184;9.722;2022-09-25T16:25:36;2.08;;;1.02;;
8187;SDS011;4135;49.184;9.722;2022-09-25T16:28:15;2.00;;;1.05;;
8187;SDS011;4135;49.184;9.722;2022-09-25T16:30:57;1.27;;;0.88;;
8187;SDS011;4135;49.184;9.722;2022-09-25T16:33:30;1.27;;;0.90;;
8187;SDS011;4135;49.184;9.722;2022-09-25T16:36:07;3.28;;;1.00;;
8187;SDS011;4135;49.184;9.722;2022-09-25T16:41:38;1.42;;;0.90;;
8187;SDS011;4135;49.184;9.722;2022-09-25T16:44:14;1.73;;;0.88;;
8187;SDS011;4135;49.184;9.722;2022-09-25T16:49:20;2.03;;;0.70;;
8187;SDS011;4135;49.184;9.722;2022-09-25T16:51:50;0.95;;;0.70;;
8187;SDS011;4135;49.184;9.722;2022-09-25T16:54:21;0.88;;;0.80;;
8187;SDS011;4135;49.184;9.722;2022-09-25T16:56:58;2.42;;;0.77;;
8187;SDS011;4135;49.184;9.722;2022-09-25T16:59:30;0.65;;;0.50;;
8187;SDS011;4135;49.184;9.722;2022-09-25T17:02:00;1.00;;;0.77;;
8187;SDS011;4135;49.184;9.722;2022-09-25T17:04:36;0.88;;;0.70;;
8187;SDS011;4135;49.184;9.722;2022-09-25T17:07:07;2.15;;;0.93;;
8187;SDS011;4135;49.184;9.722;2022-09-25T17:09:36;1.90;;;0.65;;
8187;SDS011;4135;49.184;9.722;2022-09-25T17:12:08;0.60;;;0.50;;
8187;SDS011;4135;49.184;9.722;2022-09-25T17:14:43;1.05;;;0.43;;
8187;SDS011;4135;49.184;9.722;2022-09-25T17:17:14;1.40;;;0.73;;
8187;SDS011;4135;49.184;9.722;2022-09-25T17:19:47;2.28;;;1.02;;
8187;SDS011;4135;49.184;9.722;2022-09-25T17:22:17;0.60;;;0.50;;
8187;SDS011;4135;49.184;9.722;2022-09-25T17:24:46;1.17;;;0.60;;
8187;SDS011;4135;49.184;9.722;2022-09-25T17:27:16;1.58;;;0.60;;
8187;SDS011;4135;49.184;9.722;2022-09-25T17:29:45;1.85;;;0.70;;
8187;SDS011;4135;49.184;9.722;2022-09-25T17:32:16;1.38;;;0.85;;
8187;SDS011;4135;49.184;9.722;2022-09-25T17:34:45;3.30;;;0.90;;
8187;SDS011;4135;49.184;9.722;2022-09-25T17:37:15;1.75;;;0.60;;
8187;SDS011;4135;49.184;9.722;2022-09-25T17:39:44;0.52;;;0.50;;
8187;SDS011;4135;49.184;9.722;2022-09-25T17:42:14;1.05;;;0.90;;
8187;SDS011;4135;49.184;9.722;2022-09-25T17:44:43;1.17;;;0.60;;
8187;SDS011;4135;49.184;9.722;2022-09-25T17:47:15;0.80;;;0.57;;
8187;SDS011;4135;49.184;9.722;2022-09-25T17:49:44;1.40;;;0.65;;
8187;SDS011;4135;49.184;9.722;2022-09-25T17:52:15;1.38;;;1.08;;
8187;SDS011;4135;49.184;9.722;2022-09-25T17:54:48;1.02;;;0.70;;
8187;SDS011;4135;49.184;9.722;2022-09-25T17:57:17;1.08;;;0.80;;
8187;SDS011;4135;49.184;9.722;2022-09-25T17:59:47;1.63;;;0.93;;
8187;SDS011;4135;49.184;9.722;2022-09-25T18:02:16;2.17;;;0.70;;
8187;SDS011;4135;49.184;9.722;2022-09-25T18:04:46;0.95;;;0.50;;
8187;SDS011;4135;49.184;9.722;2022-09-25T18:07:15;0.88;;;0.57;;
8187;SDS011;4135;49.184;9.722;2022-09-25T18:09:46;1.88;;;1.10;;
8187;SDS011;4135;49.184;9.722;2022-09-25T18:12:15;1.58;;;0.63;;
8187;SDS011;4135;49.184;9.722;2022-09-25T18:14:45;1.17;;;0.60;;
8187;SDS011;4135;49.184;9.722;2022-09-25T18:17:14;0.63;;;0.57;;
8187;SDS011;4135;49.184;9.722;2022-09-25T18:19:44;1.50;;;0.77;;
8187;SDS011;4135;49.184;9.722;2022-09-25T18:22:32;1.13;;;0.73;;
8187;SDS011;4135;49.184;9.722;2022-09-25T18:25:03;1.85;;;1.08;;
8187;SDS011;4135;49.184;9.722;2022-09-25T18:27:33;1.80;;;0.60;;
8187;SDS011;4135;49.184;9.722;2022-09-25T18:30:03;1.50;;;0.85;;
8187;SDS011;4135;49.184;9.722;2022-09-25T18:32:33;1.30;;;0.63;;
8187;SDS011;4135;49.184;9.722;2022-09-25T18:35:03;1.42;;;0.68;;
8187;SDS011;4135;49.184;9.722;2022-09-25T18:37:34;1.38;;;0.80;;
8187;SDS011;4135;49.184;9.722;2022-09-25T18:40:04;2.33;;;1.13;;
8187;SDS011;4135;49.184;9.722;2022-09-25T18:42:34;0.80;;;0.57;;
8187;SDS011;4135;49.184;9.722;2022-09-25T18:45:04;0.73;;;0.68;;